Time;durP1;ratioP1;P1;durP2;ratioP2;P2;SDS_P1;SDS_P2;PMS_P1;PMS_P2;Temp;Humidity;BMP_temperature;BMP_pressure;BME280_temperature;BME280_humidity;BME280_pressure;Samples;Min_cycle;Max_cycle;Signal;HPM_P1;HPM_P2
2022/03/26 00:02:23;;;;;;;8.63;4.20;;;;;;;;;;5051832;28;20024;-64
2022/03/26 00:04:49;;;;;;;9.25;4.22;;;;;;;;;;5051296;28;20021;-62
2022/03/26 00:07:15;;;;;;;8.00;4.15;;;;;;;;;;5051343;28;20044;-63
2022/03/26 00:09:41;;;;;;;12.75;4.07;;;;;;;;;;5051474;28;20025;-63
2022/03/26 00:12:08;;;;;;;7.82;4.00;;;;;;;;;;5051553;28;20411;-62
2022/03/26 00:14:34;;;;;;;8.77;4.28;;;;;;;;;;5051554;28;20021;-61
2022/03/26 00:17:00;;;;;;;8.32;3.95;;;;;;;;;;5051257;28;20029;-62
2022/03/26 00:19:27;;;;;;;8.10;4.00;;;;;;;;;;5051430;28;20061;-62
2022/03/26 00:21:53;;;;;;;10.05;4.75;;;;;;;;;;5051344;28;20031;-62
2022/03/26 00:24:20;;;;;;;9.35;4.32;;;;;;;;;;5051204;28;20021;-62
2022/03/26 00:26:46;;;;;;;9.80;4.28;;;;;;;;;;5050862;28;20037;-62
2022/03/26 00:29:12;;;;;;;8.90;4.30;;;;;;;;;;5051207;28;20024;-62
2022/03/26 00:31:38;;;;;;;7.78;3.97;;;;;;;;;;5050257;28;20063;-62
2022/03/26 00:34:09;;;;;;;8.90;4.50;;;;;;;;;;5051408;28;20043;-62
2022/03/26 00:36:35;;;;;;;8.32;4.03;;;;;;;;;;5050940;28;20079;-62
2022/03/26 00:39:01;;;;;;;9.48;4.72;;;;;;;;;;5049662;28;20618;-62
2022/03/26 00:41:28;;;;;;;9.27;4.35;;;;;;;;;;5050945;28;20361;-62
2022/03/26 00:43:55;;;;;;;11.13;4.50;;;;;;;;;;5049744;28;20017;-62
2022/03/26 00:46:21;;;;;;;7.18;4.28;;;;;;;;;;5050858;28;20502;-63
2022/03/26 00:48:47;;;;;;;9.50;4.88;;;;;;;;;;5045951;28;20729;-63
2022/03/26 00:51:15;;;;;;;10.23;4.82;;;;;;;;;;5047608;28;20035;-62
2022/03/26 00:53:42;;;;;;;9.70;4.45;;;;;;;;;;5050894;28;20049;-62
2022/03/26 00:56:08;;;;;;;8.23;4.05;;;;;;;;;;5050783;28;20075;-62
2022/03/26 00:58:34;;;;;;;9.57;5.13;;;;;;;;;;5030996;28;20013;-63
2022/03/26 01:01:00;;;;;;;8.85;4.60;;;;;;;;;;5031134;28;20075;-62
2022/03/26 01:03:26;;;;;;;10.00;4.85;;;;;;;;;;5031291;28;20057;-62
2022/03/26 01:05:53;;;;;;;7.97;4.35;;;;;;;;;;5030613;28;20072;-63
2022/03/26 01:08:19;;;;;;;9.10;4.40;;;;;;;;;;5032117;28;20025;-63
2022/03/26 01:10:46;;;;;;;9.63;5.18;;;;;;;;;;5034992;28;20021;-62
2022/03/26 01:13:12;;;;;;;11.15;4.65;;;;;;;;;;5035063;28;20072;-63
2022/03/26 01:15:39;;;;;;;9.43;4.75;;;;;;;;;;5052502;28;20063;-62
2022/03/26 01:18:05;;;;;;;8.65;4.55;;;;;;;;;;5054858;28;20025;-62
2022/03/26 01:20:31;;;;;;;9.27;5.10;;;;;;;;;;5054623;28;20546;-62
2022/03/26 01:22:57;;;;;;;8.77;4.75;;;;;;;;;;5054639;28;20023;-62
2022/03/26 01:25:24;;;;;;;8.35;4.40;;;;;;;;;;5054642;28;20037;-63
2022/03/26 01:27:51;;;;;;;9.40;5.25;;;;;;;;;;5054501;28;20042;-62
2022/03/26 01:30:17;;;;;;;10.13;4.68;;;;;;;;;;5048114;28;20035;-62
2022/03/26 01:32:44;;;;;;;9.85;4.55;;;;;;;;;;5054535;28;20028;-62
2022/03/26 01:35:10;;;;;;;11.20;4.30;;;;;;;;;;5054582;28;20017;-62
2022/03/26 01:37:37;;;;;;;9.13;4.88;;;;;;;;;;5054167;28;20120;-62
2022/03/26 01:40:04;;;;;;;9.75;4.63;;;;;;;;;;5070274;28;20380;-62
2022/03/26 01:42:30;;;;;;;8.00;4.47;;;;;;;;;;5069756;28;20032;-62
2022/03/26 01:44:56;;;;;;;9.68;4.22;;;;;;;;;;5054229;28;20032;-62
2022/03/26 01:47:22;;;;;;;10.98;4.88;;;;;;;;;;5054148;28;20033;-62
2022/03/26 01:49:48;;;;;;;9.35;5.03;;;;;;;;;;5054177;28;20495;-63
2022/03/26 01:52:14;;;;;;;7.75;4.22;;;;;;;;;;5054318;28;20033;-63
2022/03/26 01:54:41;;;;;;;7.80;4.18;;;;;;;;;;5053970;28;20032;-62
2022/03/26 01:57:10;;;;;;;9.73;4.80;;;;;;;;;;5054283;28;20044;-62
2022/03/26 01:59:36;;;;;;;10.73;4.75;;;;;;;;;;5054128;28;20028;-62
2022/03/26 02:02:03;;;;;;;9.30;4.65;;;;;;;;;;5054062;28;20025;-62
2022/03/26 02:04:29;;;;;;;10.73;4.45;;;;;;;;;;5053935;28;20029;-63
2022/03/26 02:06:55;;;;;;;8.02;4.57;;;;;;;;;;5053786;28;20048;-62
2022/03/26 02:09:21;;;;;;;9.68;5.15;;;;;;;;;;5053807;28;20024;-62
2022/03/26 02:11:47;;;;;;;9.77;4.18;;;;;;;;;;5053898;28;20057;-62
2022/03/26 02:14:14;;;;;;;8.75;4.95;;;;;;;;;;5053815;28;20074;-63
2022/03/26 02:16:41;;;;;;;7.78;4.57;;;;;;;;;;5053740;28;20017;-62
2022/03/26 02:19:08;;;;;;;11.23;4.32;;;;;;;;;;5053132;28;20033;-62
2022/03/26 02:21:38;;;;;;;10.98;4.38;;;;;;;;;;5053152;28;20024;-62
2022/03/26 02:24:06;;;;;;;8.63;4.35;;;;;;;;;;5053605;28;20087;-62
2022/03/26 02:26:32;;;;;;;11.23;4.32;;;;;;;;;;5053363;28;20136;-62
2022/03/26 02:29:04;;;;;;;13.30;4.45;;;;;;;;;;5053616;28;20017;-62
2022/03/26 02:31:30;;;;;;;7.73;4.03;;;;;;;;;;5053359;28;20100;-62
2022/03/26 02:33:56;;;;;;;8.65;4.00;;;;;;;;;;5053582;28;20028;-62
2022/03/26 02:36:22;;;;;;;9.65;4.50;;;;;;;;;;5053297;28;20033;-62
2022/03/26 02:38:48;;;;;;;7.10;4.13;;;;;;;;;;5053250;28;20052;-63
2022/03/26 02:41:14;;;;;;;7.50;4.20;;;;;;;;;;5053365;28;20028;-62
2022/03/26 02:43:40;;;;;;;9.27;4.65;;;;;;;;;;5053462;28;20045;-62
2022/03/26 02:46:06;;;;;;;11.60;4.20;;;;;;;;;;5053204;28;20055;-62
2022/03/26 02:48:34;;;;;;;8.73;4.15;;;;;;;;;;5045598;28;20032;-62
2022/03/26 02:51:00;;;;;;;8.10;4.05;;;;;;;;;;5053250;28;20036;-63
2022/03/26 02:53:26;;;;;;;48.85;5.93;;;;;;;;;;5052999;28;20103;-63
2022/03/26 02:55:52;;;;;;;10.18;4.30;;;;;;;;;;5052888;28;20021;-63
2022/03/26 02:58:18;;;;;;;12.98;4.28;;;;;;;;;;5052949;28;20021;-63
2022/03/26 03:00:44;;;;;;;15.43;4.13;;;;;;;;;;5052904;28;20017;-63
2022/03/26 03:03:12;;;;;;;8.23;4.20;;;;;;;;;;5053168;28;20075;-62
2022/03/26 03:05:38;;;;;;;10.68;4.82;;;;;;;;;;5052781;28;20292;-63
2022/03/26 03:08:04;;;;;;;9.35;4.68;;;;;;;;;;5052850;28;20100;-63
2022/03/26 03:10:30;;;;;;;14.55;5.22;;;;;;;;;;5052871;28;20025;-62
2022/03/26 03:12:57;;;;;;;7.22;4.05;;;;;;;;;;5052478;28;20021;-63
2022/03/26 03:15:23;;;;;;;11.60;4.30;;;;;;;;;;5052565;28;20052;-62
2022/03/26 03:17:49;;;;;;;8.57;4.32;;;;;;;;;;5052626;28;20017;-63
2022/03/26 03:20:16;;;;;;;10.20;4.68;;;;;;;;;;5049119;28;20507;-63
2022/03/26 03:22:43;;;;;;;10.77;4.72;;;;;;;;;;5052700;28;20068;-62
2022/03/26 03:25:10;;;;;;;12.88;4.28;;;;;;;;;;5052467;28;20025;-62
2022/03/26 03:27:36;;;;;;;10.65;4.75;;;;;;;;;;5052341;28;20495;-63
2022/03/26 03:30:05;;;;;;;8.90;4.55;;;;;;;;;;5052371;28;20013;-63
2022/03/26 03:32:32;;;;;;;10.38;4.32;;;;;;;;;;5052132;28;20167;-63
2022/03/26 03:34:58;;;;;;;8.55;4.38;;;;;;;;;;5048076;28;20026;-63
2022/03/26 03:37:24;;;;;;;9.77;4.38;;;;;;;;;;5050621;28;20423;-64
2022/03/26 03:39:50;;;;;;;8.50;4.25;;;;;;;;;;5052302;28;20013;-62
2022/03/26 03:42:16;;;;;;;9.73;4.13;;;;;;;;;;5068029;28;20494;-63
2022/03/26 03:44:42;;;;;;;10.48;4.28;;;;;;;;;;5052141;28;20120;-63
2022/03/26 03:47:09;;;;;;;9.05;4.35;;;;;;;;;;5052245;28;20040;-64
2022/03/26 03:49:35;;;;;;;9.80;4.55;;;;;;;;;;5052209;28;20052;-63
2022/03/26 03:52:01;;;;;;;7.35;4.20;;;;;;;;;;5050580;28;20025;-63
2022/03/26 03:54:28;;;;;;;9.52;4.50;;;;;;;;;;5037929;28;20488;-63
2022/03/26 03:56:55;;;;;;;8.32;4.18;;;;;;;;;;5067021;28;20049;-62
2022/03/26 03:59:21;;;;;;;8.48;4.20;;;;;;;;;;5051822;28;20013;-62
2022/03/26 04:01:47;;;;;;;8.73;4.32;;;;;;;;;;5051810;28;20021;-62
2022/03/26 04:04:13;;;;;;;7.95;4.05;;;;;;;;;;5051882;28;20025;-62
2022/03/26 04:06:39;;;;;;;7.55;3.65;;;;;;;;;;5051285;28;20040;-63
2022/03/26 04:09:06;;;;;;;9.70;4.15;;;;;;;;;;5067286;28;20017;-63
2022/03/26 04:11:32;;;;;;;11.77;4.47;;;;;;;;;;5052079;28;20028;-64
2022/03/26 04:13:58;;;;;;;7.88;4.38;;;;;;;;;;5051848;28;20021;-63
2022/03/26 04:16:24;;;;;;;8.27;3.72;;;;;;;;;;5051752;28;20636;-63
2022/03/26 04:18:50;;;;;;;7.25;3.83;;;;;;;;;;5051995;28;20029;-63
2022/03/26 04:21:16;;;;;;;8.57;4.05;;;;;;;;;;5051740;28;20025;-62
2022/03/26 04:23:42;;;;;;;8.63;3.67;;;;;;;;;;5051874;28;20029;-62
2022/03/26 04:26:09;;;;;;;7.55;3.97;;;;;;;;;;5051329;28;20170;-64
2022/03/26 04:28:35;;;;;;;14.32;3.28;;;;;;;;;;5051577;28;20472;-62
2022/03/26 04:31:02;;;;;;;7.80;4.10;;;;;;;;;;5051683;28;20527;-62
2022/03/26 04:33:28;;;;;;;8.65;3.95;;;;;;;;;;5051376;28;20049;-61
2022/03/26 04:35:54;;;;;;;8.13;3.88;;;;;;;;;;5051468;28;20515;-63
2022/03/26 04:38:20;;;;;;;8.95;3.60;;;;;;;;;;5051451;28;20021;-62
2022/03/26 04:40:46;;;;;;;7.70;3.47;;;;;;;;;;5051273;28;20029;-63
2022/03/26 04:43:13;;;;;;;9.82;3.88;;;;;;;;;;5050647;28;20012;-63
2022/03/26 04:45:39;;;;;;;5.97;3.42;;;;;;;;;;5051241;28;20075;-61
2022/03/26 04:48:05;;;;;;;6.78;3.45;;;;;;;;;;5051312;28;20036;-62
2022/03/26 04:50:32;;;;;;;7.68;3.80;;;;;;;;;;5050438;28;20025;-62
2022/03/26 04:52:58;;;;;;;8.80;3.33;;;;;;;;;;5049760;28;20025;-62
2022/03/26 04:55:24;;;;;;;8.43;4.18;;;;;;;;;;5051015;28;20083;-63
2022/03/26 04:57:51;;;;;;;6.13;3.08;;;;;;;;;;5045053;28;20298;-61
2022/03/26 05:00:17;;;;;;;8.05;3.90;;;;;;;;;;5051169;28;20025;-62
2022/03/26 05:02:44;;;;;;;9.13;3.83;;;;;;;;;;5051035;28;20025;-62
2022/03/26 05:05:11;;;;;;;7.40;3.30;;;;;;;;;;5050973;28;20064;-63
2022/03/26 05:07:47;;;;;;;8.82;3.50;;;;;;;;;;5051245;28;20134;-62
2022/03/26 05:10:14;;;;;;;8.20;3.92;;;;;;;;;;5051014;28;20087;-62
2022/03/26 05:12:41;;;;;;;7.43;3.78;;;;;;;;;;5051062;28;20033;-62
2022/03/26 05:15:08;;;;;;;7.82;3.95;;;;;;;;;;5051032;28;20021;-64
2022/03/26 05:17:34;;;;;;;8.45;4.00;;;;;;;;;;5051168;28;20432;-64
2022/03/26 05:20:01;;;;;;;9.18;3.60;;;;;;;;;;5066619;28;20029;-65
2022/03/26 05:22:28;;;;;;;7.65;3.50;;;;;;;;;;5050949;28;20025;-64
2022/03/26 05:24:54;;;;;;;9.63;3.47;;;;;;;;;;5051001;28;20021;-63
2022/03/26 05:27:20;;;;;;;5.63;3.22;;;;;;;;;;5050873;28;20488;-62
2022/03/26 05:29:48;;;;;;;9.43;4.00;;;;;;;;;;5050854;28;20028;-64
2022/03/26 05:32:15;;;;;;;9.75;4.20;;;;;;;;;;5051221;28;20021;-65
2022/03/26 05:34:41;;;;;;;8.93;4.00;;;;;;;;;;5050911;28;20057;-64
2022/03/26 05:37:07;;;;;;;8.43;3.95;;;;;;;;;;5050753;28;20114;-62
2022/03/26 05:39:33;;;;;;;8.95;3.78;;;;;;;;;;5050703;28;20075;-62
2022/03/26 05:42:00;;;;;;;8.00;4.15;;;;;;;;;;5050632;28;20048;-62
2022/03/26 05:44:26;;;;;;;10.27;3.95;;;;;;;;;;5041181;28;20109;-63
2022/03/26 05:46:52;;;;;;;13.00;4.70;;;;;;;;;;5049171;28;20036;-63
2022/03/26 05:49:19;;;;;;;11.55;4.70;;;;;;;;;;5050588;28;20028;-63
2022/03/26 05:51:46;;;;;;;10.40;4.85;;;;;;;;;;5050725;28;20025;-63
2022/03/26 05:54:12;;;;;;;8.25;4.18;;;;;;;;;;5051760;28;20021;-63
2022/03/26 05:56:38;;;;;;;9.27;4.65;;;;;;;;;;5054150;28;20108;-61
2022/03/26 05:59:05;;;;;;;9.25;4.35;;;;;;;;;;5069582;28;20025;-63
2022/03/26 06:01:34;;;;;;;11.02;4.70;;;;;;;;;;5054183;28;20028;-63
2022/03/26 06:04:00;;;;;;;10.05;4.28;;;;;;;;;;5069371;28;20017;-62
2022/03/26 06:06:26;;;;;;;7.15;4.03;;;;;;;;;;5053713;28;20449;-62
2022/03/26 06:08:52;;;;;;;9.90;4.07;;;;;;;;;;5053955;28;20017;-63
2022/03/26 06:11:18;;;;;;;8.50;4.00;;;;;;;;;;5054114;28;20108;-64
2022/03/26 06:13:44;;;;;;;8.57;4.10;;;;;;;;;;5069248;28;20437;-63
2022/03/26 06:16:10;;;;;;;7.95;3.75;;;;;;;;;;5045421;28;20031;-62
2022/03/26 06:18:36;;;;;;;10.43;4.35;;;;;;;;;;5053785;28;20043;-63
2022/03/26 06:21:06;;;;;;;12.90;5.00;;;;;;;;;;5054014;28;20048;-63
2022/03/26 06:23:32;;;;;;;10.10;4.50;;;;;;;;;;5053809;28;20032;-63
2022/03/26 06:25:58;;;;;;;8.48;4.28;;;;;;;;;;5053746;28;20025;-62
2022/03/26 06:28:24;;;;;;;11.02;4.45;;;;;;;;;;5053661;28;20051;-64
2022/03/26 06:30:51;;;;;;;11.52;4.60;;;;;;;;;;5053602;28;20021;-63
2022/03/26 06:33:18;;;;;;;9.73;4.32;;;;;;;;;;5047247;28;20208;-64
2022/03/26 06:35:44;;;;;;;8.80;4.35;;;;;;;;;;5053541;28;20464;-62
2022/03/26 06:38:10;;;;;;;11.27;5.28;;;;;;;;;;5053812;28;20028;-63
2022/03/26 06:40:37;;;;;;;10.90;4.03;;;;;;;;;;5053926;28;20482;-63
2022/03/26 06:43:04;;;;;;;10.50;4.47;;;;;;;;;;5053691;28;20363;-64
2022/03/26 06:45:30;;;;;;;16.20;4.70;;;;;;;;;;5053442;28;20602;-63
2022/03/26 06:47:56;;;;;;;10.27;4.65;;;;;;;;;;5062341;28;20088;-63
2022/03/26 06:50:22;;;;;;;8.73;4.35;;;;;;;;;;5053365;28;20079;-63
2022/03/26 06:52:48;;;;;;;21.48;5.38;;;;;;;;;;5035293;28;20109;-63
2022/03/26 06:55:14;;;;;;;13.70;4.63;;;;;;;;;;5032395;28;20100;-64
2022/03/26 06:57:43;;;;;;;22.40;4.05;;;;;;;;;;5032039;28;20025;-63
2022/03/26 07:00:10;;;;;;;17.15;5.28;;;;;;;;;;5032230;28;20456;-63
2022/03/26 07:02:36;;;;;;;13.02;5.57;;;;;;;;;;5032544;28;20026;-63
2022/03/26 07:05:03;;;;;;;14.80;5.07;;;;;;;;;;5032450;28;20030;-64
2022/03/26 07:07:29;;;;;;;11.25;5.35;;;;;;;;;;5032007;28;20436;-63
2022/03/26 07:09:55;;;;;;;16.38;4.85;;;;;;;;;;5032627;28;20017;-63
2022/03/26 07:12:21;;;;;;;12.20;4.55;;;;;;;;;;5048203;28;20026;-64
2022/03/26 07:14:48;;;;;;;18.20;4.75;;;;;;;;;;5047816;28;20369;-62
2022/03/26 07:17:16;;;;;;;20.60;5.10;;;;;;;;;;5038366;28;20103;-62
2022/03/26 07:19:42;;;;;;;23.50;5.57;;;;;;;;;;5048931;28;20033;-62
2022/03/26 07:22:08;;;;;;;9.57;4.90;;;;;;;;;;5046918;28;20032;-63
2022/03/26 07:24:35;;;;;;;18.08;5.07;;;;;;;;;;5044898;28;20025;-64
2022/03/26 07:27:01;;;;;;;10.63;4.70;;;;;;;;;;5050392;28;20094;-62
2022/03/26 07:29:27;;;;;;;13.38;5.32;;;;;;;;;;5051572;28;20092;-62
2022/03/26 07:31:54;;;;;;;11.60;4.50;;;;;;;;;;5051783;28;20035;-63
2022/03/26 07:34:22;;;;;;;11.32;4.45;;;;;;;;;;5051569;28;20014;-64
2022/03/26 07:36:48;;;;;;;9.43;4.45;;;;;;;;;;5051815;28;20538;-61
2022/03/26 07:39:15;;;;;;;12.18;4.32;;;;;;;;;;5044691;28;20038;-62
2022/03/26 07:41:41;;;;;;;11.50;4.10;;;;;;;;;;5048712;28;20025;-62
2022/03/26 07:44:08;;;;;;;12.52;4.70;;;;;;;;;;5038920;28;20025;-63
2022/03/26 07:46:34;;;;;;;12.45;4.70;;;;;;;;;;5049876;28;20636;-63
2022/03/26 07:49:00;;;;;;;10.43;4.28;;;;;;;;;;5049438;28;20548;-63
2022/03/26 07:51:27;;;;;;;12.95;4.40;;;;;;;;;;5045823;28;20086;-64
2022/03/26 07:53:53;;;;;;;9.60;4.03;;;;;;;;;;5049765;28;20341;-63
2022/03/26 07:56:19;;;;;;;13.25;4.60;;;;;;;;;;5050993;28;20061;-63
2022/03/26 07:58:47;;;;;;;11.48;4.60;;;;;;;;;;5046186;28;20056;-64
2022/03/26 08:01:13;;;;;;;8.52;4.25;;;;;;;;;;5039050;28;20040;-62
2022/03/26 08:03:39;;;;;;;8.27;4.15;;;;;;;;;;5040109;28;20029;-64
2022/03/26 08:06:05;;;;;;;9.68;4.30;;;;;;;;;;5045408;28;20044;-64
2022/03/26 08:08:31;;;;;;;13.43;4.68;;;;;;;;;;5050920;28;20057;-64
2022/03/26 08:10:58;;;;;;;10.25;4.22;;;;;;;;;;5050858;28;20490;-63
2022/03/26 08:13:24;;;;;;;11.90;4.40;;;;;;;;;;5050973;28;20032;-63
2022/03/26 08:15:50;;;;;;;8.90;4.30;;;;;;;;;;5050976;28;20025;-64
2022/03/26 08:18:16;;;;;;;10.02;4.32;;;;;;;;;;5033870;28;20028;-63
2022/03/26 08:20:43;;;;;;;10.18;4.55;;;;;;;;;;5047507;28;20013;-63
2022/03/26 08:23:09;;;;;;;9.20;4.80;;;;;;;;;;5038051;28;20129;-65
2022/03/26 08:28:20;;;;;;;9.13;4.65;;;;;;;;;;5048122;28;20031;-64
2022/03/26 08:30:46;;;;;;;13.10;4.30;;;;;;;;;;5050884;28;20094;-65
2022/03/26 08:33:12;;;;;;;11.73;4.95;;;;;;;;;;5050769;28;20013;-64
2022/03/26 08:35:41;;;;;;;9.88;4.90;;;;;;;;;;5050692;28;20084;-62
2022/03/26 08:38:08;;;;;;;10.68;4.45;;;;;;;;;;5035837;28;20099;-62
2022/03/26 08:40:34;;;;;;;10.05;5.15;;;;;;;;;;5046120;28;20377;-64
2022/03/26 08:43:01;;;;;;;11.45;4.95;;;;;;;;;;5042952;28;20121;-64
2022/03/26 08:45:28;;;;;;;9.48;4.50;;;;;;;;;;5050464;28;20055;-63
2022/03/26 08:47:54;;;;;;;10.05;4.40;;;;;;;;;;5037847;28;20099;-63
2022/03/26 08:50:21;;;;;;;11.32;4.50;;;;;;;;;;5047346;28;20039;-63
2022/03/26 08:52:47;;;;;;;14.88;5.25;;;;;;;;;;5035346;28;20024;-63
2022/03/26 08:55:14;;;;;;;11.32;5.22;;;;;;;;;;5050505;28;20460;-63
2022/03/26 08:57:40;;;;;;;9.15;5.10;;;;;;;;;;5038252;28;20464;-62
2022/03/26 09:00:07;;;;;;;11.10;4.88;;;;;;;;;;5045625;28;20100;-62
2022/03/26 09:02:33;;;;;;;12.50;4.63;;;;;;;;;;5033676;28;20034;-63
2022/03/26 09:04:59;;;;;;;9.68;4.80;;;;;;;;;;5044912;28;20121;-63
2022/03/26 09:07:25;;;;;;;12.30;5.65;;;;;;;;;;5039257;28;20049;-64
2022/03/26 09:09:52;;;;;;;12.95;4.22;;;;;;;;;;5037705;28;20350;-63
2022/03/26 09:12:18;;;;;;;11.38;4.40;;;;;;;;;;5046812;28;20029;-63
2022/03/26 09:14:44;;;;;;;14.25;4.80;;;;;;;;;;5034749;28;20059;-64
2022/03/26 09:17:10;;;;;;;14.43;5.05;;;;;;;;;;5049034;28;20021;-63
2022/03/26 09:19:36;;;;;;;11.52;5.07;;;;;;;;;;5049445;28;20078;-64
2022/03/26 09:22:03;;;;;;;10.68;5.43;;;;;;;;;;5050541;28;20029;-62
2022/03/26 09:24:29;;;;;;;12.15;5.28;;;;;;;;;;5050569;28;20025;-64
2022/03/26 09:26:55;;;;;;;19.23;6.07;;;;;;;;;;5050768;28;20029;-64
2022/03/26 09:29:21;;;;;;;19.25;5.75;;;;;;;;;;5051719;28;20143;-63
2022/03/26 09:31:47;;;;;;;18.73;5.85;;;;;;;;;;5054902;28;20036;-63
2022/03/26 09:34:14;;;;;;;21.27;7.28;;;;;;;;;;5054652;28;20083;-63
2022/03/26 09:36:40;;;;;;;23.58;7.65;;;;;;;;;;5069838;28;20025;-65
2022/03/26 09:39:06;;;;;;;25.15;6.80;;;;;;;;;;5054592;28;20106;-64
2022/03/26 09:41:32;;;;;;;21.77;6.45;;;;;;;;;;5054612;28;20025;-63
2022/03/26 09:43:59;;;;;;;26.08;7.85;;;;;;;;;;5054662;28;20100;-62
2022/03/26 09:46:25;;;;;;;19.60;5.88;;;;;;;;;;5042021;28;20065;-64
2022/03/26 09:48:51;;;;;;;21.70;7.32;;;;;;;;;;5034995;28;20076;-65
2022/03/26 09:51:24;;;;;;;38.30;7.47;;;;;;;;;;5033689;28;20025;-65
2022/03/26 09:53:51;;;;;;;24.45;7.72;;;;;;;;;;5033870;28;20021;-65
2022/03/26 09:56:18;;;;;;;28.55;7.65;;;;;;;;;;5033081;28;20424;-63
2022/03/26 09:58:44;;;;;;;31.42;6.95;;;;;;;;;;5053897;28;20099;-64
2022/03/26 10:01:10;;;;;;;23.20;7.05;;;;;;;;;;5054282;28;20025;-65
2022/03/26 10:03:39;;;;;;;22.73;6.93;;;;;;;;;;5052304;28;20103;-63
2022/03/26 10:06:07;;;;;;;16.58;6.22;;;;;;;;;;5037199;28;20084;-64
2022/03/26 10:08:40;;;;;;;21.92;6.82;;;;;;;;;;5049445;28;20029;-63
2022/03/26 10:11:07;;;;;;;19.27;6.60;;;;;;;;;;5034888;28;20052;-64
2022/03/26 10:13:43;;;;;;;19.85;6.90;;;;;;;;;;5037929;28;20405;-64
2022/03/26 10:16:13;;;;;;;21.65;6.70;;;;;;;;;;5054487;28;20035;-65
2022/03/26 10:18:42;;;;;;;20.20;6.55;;;;;;;;;;5054589;28;20052;-65
2022/03/26 10:21:10;;;;;;;17.65;6.28;;;;;;;;;;5042633;28;20116;-64
2022/03/26 10:23:36;;;;;;;17.30;6.40;;;;;;;;;;5033322;28;20025;-63
2022/03/26 10:26:10;;;;;;;21.65;6.10;;;;;;;;;;5034306;28;20025;-65
2022/03/26 10:28:36;;;;;;;15.82;5.65;;;;;;;;;;5034490;28;20034;-64
2022/03/26 10:34:19;;;;;;;14.35;4.70;;;;;;;;;;5034175;28;20067;-65
2022/03/26 10:37:03;;;;;;;16.23;5.35;;;;;;;;;;5034104;28;20705;-64
2022/03/26 10:39:30;;;;;;;13.38;5.13;;;;;;;;;;5034238;28;20021;-64
2022/03/26 10:41:57;;;;;;;13.93;4.78;;;;;;;;;;5033592;28;20084;-64
2022/03/26 10:44:24;;;;;;;12.57;4.97;;;;;;;;;;5034171;28;20052;-64
2022/03/26 10:46:50;;;;;;;32.00;7.15;;;;;;;;;;5035254;28;20080;-64
2022/03/26 10:49:40;;;;;;;23.30;5.45;;;;;;;;;;5035049;28;20021;-64
2022/03/26 10:52:09;;;;;;;21.38;5.45;;;;;;;;;;5034104;28;20029;-62
2022/03/26 10:54:35;;;;;;;57.10;6.70;;;;;;;;;;5034412;28;20025;-62
2022/03/26 10:57:02;;;;;;;24.58;5.20;;;;;;;;;;5051841;28;20025;-64
2022/03/26 10:59:29;;;;;;;19.27;5.00;;;;;;;;;;5053540;28;20024;-63
2022/03/26 11:01:55;;;;;;;18.20;5.03;;;;;;;;;;5051916;28;20025;-64
2022/03/26 11:04:21;;;;;;;16.38;3.70;;;;;;;;;;5053268;28;20039;-63
2022/03/26 11:06:48;;;;;;;15.90;4.32;;;;;;;;;;5035323;28;20077;-64
2022/03/26 11:09:17;;;;;;;11.15;4.30;;;;;;;;;;5038322;28;20029;-63
2022/03/26 11:11:45;;;;;;;16.52;4.78;;;;;;;;;;5049149;28;20025;-64
2022/03/26 11:14:37;;;;;;;12.48;4.43;;;;;;;;;;5052410;28;20017;-64
2022/03/26 11:17:15;;;;;;;20.90;4.97;;;;;;;;;;5042013;28;20064;-64
2022/03/26 11:19:41;;;;;;;25.45;5.63;;;;;;;;;;5049795;28;20025;-64
2022/03/26 11:22:07;;;;;;;16.58;4.72;;;;;;;;;;5048985;28;20583;-65
2022/03/26 11:24:40;;;;;;;24.83;6.32;;;;;;;;;;5050912;28;20036;-64
2022/03/26 11:27:12;;;;;;;22.10;5.68;;;;;;;;;;5052278;28;20108;-64
2022/03/26 11:29:41;;;;;;;16.48;4.50;;;;;;;;;;5052966;28;20041;-64
2022/03/26 11:32:07;;;;;;;12.25;4.88;;;;;;;;;;5052174;28;20055;-65
2022/03/26 11:34:37;;;;;;;10.60;4.13;;;;;;;;;;5052607;28;20021;-64
2022/03/26 11:37:13;;;;;;;12.75;4.03;;;;;;;;;;5052566;28;20017;-64
2022/03/26 11:39:46;;;;;;;14.68;3.90;;;;;;;;;;5039356;28;20033;-63
2022/03/26 11:42:12;;;;;;;13.27;4.70;;;;;;;;;;5031624;28;20523;-63
2022/03/26 11:50:40;;;;;;;13.88;4.72;;;;;;;;;;5047510;28;20104;-64
2022/03/26 11:53:13;;;;;;;12.57;4.30;;;;;;;;;;5040480;28;20064;-64
2022/03/26 11:55:43;;;;;;;10.43;4.25;;;;;;;;;;5030738;28;20061;-64
2022/03/26 11:58:26;;;;;;;11.10;3.75;;;;;;;;;;5032910;28;20037;-64
2022/03/26 12:01:04;;;;;;;12.88;4.40;;;;;;;;;;5050289;28;20021;-65
2022/03/26 12:03:32;;;;;;;9.07;4.15;;;;;;;;;;5032500;28;20037;-63
2022/03/26 12:08:56;;;;;;;10.75;4.55;;;;;;;;;;5042803;28;20510;-63
2022/03/26 12:11:26;;;;;;;10.05;4.13;;;;;;;;;;5047434;28;20115;-64
2022/03/26 12:14:04;;;;;;;8.18;3.83;;;;;;;;;;5049488;28;20086;-63
2022/03/26 12:16:49;;;;;;;11.55;4.00;;;;;;;;;;5039838;28;20029;-64
2022/03/26 12:19:34;;;;;;;11.70;4.38;;;;;;;;;;5037911;28;20576;-64
2022/03/26 12:22:17;;;;;;;8.90;3.92;;;;;;;;;;5035472;28;20092;-64
2022/03/26 12:24:43;;;;;;;10.25;4.50;;;;;;;;;;5051974;28;20099;-65
2022/03/26 12:27:09;;;;;;;10.20;4.45;;;;;;;;;;5038532;28;20041;-65
2022/03/26 12:29:39;;;;;;;12.45;4.28;;;;;;;;;;5048146;28;20025;-63
2022/03/26 12:32:05;;;;;;;7.65;3.90;;;;;;;;;;5035960;28;20021;-65
2022/03/26 12:34:31;;;;;;;12.07;4.20;;;;;;;;;;5049483;28;20017;-64
2022/03/26 12:37:04;;;;;;;18.27;7.88;;;;;;;;;;5051630;28;20039;-64
2022/03/26 12:39:30;;;;;;;;;;;;;;;;;;5048774;28;20025;-63
2022/03/26 12:41:56;;;;;;;17.50;9.05;;;;;;;;;;5050261;28;19954;-63
2022/03/26 12:44:23;;;;;;;12.85;6.57;;;;;;;;;;5042526;28;20052;-62
2022/03/26 12:46:49;;;;;;;20.38;6.82;;;;;;;;;;5049409;28;20064;-63
2022/03/26 12:49:22;;;;;;;13.85;6.35;;;;;;;;;;5050143;28;20021;-62
2022/03/26 12:51:49;;;;;;;15.10;6.53;;;;;;;;;;5047462;28;20060;-64
2022/03/26 12:54:15;;;;;;;12.68;6.10;;;;;;;;;;5038767;28;20536;-62
2022/03/26 12:56:42;;;;;;;15.85;7.35;;;;;;;;;;5050852;28;20029;-64
2022/03/26 12:59:08;;;;;;;11.70;6.53;;;;;;;;;;5050692;28;20419;-62
2022/03/26 13:01:35;;;;;;;12.98;6.45;;;;;;;;;;5044839;28;20021;-62
2022/03/26 13:04:01;;;;;;;12.07;5.85;;;;;;;;;;5047753;28;20047;-64
2022/03/26 13:06:28;;;;;;;14.40;6.03;;;;;;;;;;5056678;28;20044;-62
2022/03/26 13:08:58;;;;;;;16.83;8.10;;;;;;;;;;5055660;28;20056;-64
2022/03/26 13:11:26;;;;;;;16.20;9.48;;;;;;;;;;5058154;28;20484;-62
2022/03/26 13:13:52;;;;;;;20.33;12.10;;;;;;;;;;5069814;28;20126;-65
2022/03/26 13:16:22;;;;;;;35.08;14.30;;;;;;;;;;5049925;28;20039;-65
2022/03/26 13:18:51;;;;;;;24.83;13.05;;;;;;;;;;5057413;28;20019;-63
2022/03/26 13:21:20;;;;;;;24.17;12.63;;;;;;;;;;5057375;28;20040;-62
2022/03/26 13:24:00;;;;;;;22.85;13.38;;;;;;;;;;5057360;28;20102;-62
2022/03/26 13:26:45;;;;;;;25.52;13.43;;;;;;;;;;5054778;28;20029;-63
2022/03/26 13:29:23;;;;;;;27.40;13.65;;;;;;;;;;5070505;28;20040;-62
2022/03/26 13:31:54;;;;;;;24.10;12.95;;;;;;;;;;5048253;28;20119;-62
2022/03/26 13:34:24;;;;;;;20.70;12.00;;;;;;;;;;5050867;28;20492;-62
2022/03/26 13:36:50;;;;;;;20.83;12.63;;;;;;;;;;5053325;28;20021;-63
2022/03/26 13:39:21;;;;;;;23.92;12.40;;;;;;;;;;5055796;28;20044;-63
2022/03/26 13:41:48;;;;;;;26.85;12.90;;;;;;;;;;5055205;28;20028;-63
2022/03/26 13:44:14;;;;;;;25.95;12.77;;;;;;;;;;5057506;28;20044;-63
2022/03/26 13:46:40;;;;;;;26.75;13.45;;;;;;;;;;5057207;28;20040;-63
2022/03/26 13:49:06;;;;;;;26.60;14.15;;;;;;;;;;5057202;28;20096;-62
2022/03/26 13:51:34;;;;;;;24.88;10.40;;;;;;;;;;5058049;28;20033;-63
2022/03/26 13:54:01;;;;;;;40.35;11.90;;;;;;;;;;5053432;28;20028;-62
2022/03/26 13:56:31;;;;;;;15.40;8.82;;;;;;;;;;5051725;28;20029;-63
2022/03/26 13:59:01;;;;;;;16.25;8.35;;;;;;;;;;5054047;28;20122;-64
2022/03/26 14:01:27;;;;;;;15.80;8.23;;;;;;;;;;5055042;28;20029;-62
2022/03/26 14:03:55;;;;;;;21.75;9.38;;;;;;;;;;5057024;28;20036;-65
2022/03/26 14:06:21;;;;;;;24.27;9.13;;;;;;;;;;5056008;28;20076;-64
2022/03/26 14:08:50;;;;;;;19.60;7.95;;;;;;;;;;5052806;28;20031;-64
2022/03/26 14:11:17;;;;;;;22.60;7.72;;;;;;;;;;5056607;28;20079;-63
2022/03/26 14:13:43;;;;;;;18.25;7.30;;;;;;;;;;5055786;28;20116;-63
2022/03/26 14:16:09;;;;;;;19.67;7.45;;;;;;;;;;5047506;28;20161;-63
2022/03/26 14:18:35;;;;;;;17.10;6.70;;;;;;;;;;5049049;28;20025;-63
2022/03/26 14:21:01;;;;;;;15.88;7.55;;;;;;;;;;5053356;28;20101;-63
2022/03/26 14:23:27;;;;;;;15.35;6.88;;;;;;;;;;5054346;28;20476;-64
2022/03/26 14:25:54;;;;;;;13.63;6.13;;;;;;;;;;5054326;28;20024;-63
2022/03/26 14:28:20;;;;;;;19.40;6.50;;;;;;;;;;5054380;28;20029;-64
2022/03/26 14:30:46;;;;;;;21.67;6.63;;;;;;;;;;5054495;28;20068;-63
2022/03/26 14:33:13;;;;;;;16.17;6.03;;;;;;;;;;5054392;28;20680;-64
2022/03/26 14:35:43;;;;;;;10.55;5.60;;;;;;;;;;5054246;28;20026;-63
2022/03/26 14:38:09;;;;;;;17.58;6.55;;;;;;;;;;5053648;28;20029;-63
2022/03/26 14:40:37;;;;;;;10.57;5.43;;;;;;;;;;5054139;28;20032;-63
2022/03/26 14:43:03;;;;;;;12.48;5.43;;;;;;;;;;5054080;28;20179;-64
2022/03/26 14:45:30;;;;;;;10.43;5.65;;;;;;;;;;5069224;28;20392;-63
2022/03/26 14:47:56;;;;;;;12.68;5.90;;;;;;;;;;5053858;28;20128;-64
2022/03/26 14:50:22;;;;;;;10.10;5.32;;;;;;;;;;5053999;28;20036;-63
2022/03/26 14:52:49;;;;;;;9.65;5.43;;;;;;;;;;5042799;28;20029;-63